createdAt,value
2023-11-10T00:01:54.117Z,8.80
2023-11-10T00:06:55.726Z,9.40
2023-11-10T00:11:57.597Z,6.50
2023-11-10T00:16:59.175Z,14.60
2023-11-10T00:22:00.683Z,9.70
2023-11-10T00:27:02.546Z,9.70
2023-11-10T00:32:04.270Z,9.00
2023-11-10T00:37:06.225Z,9.50
2023-11-10T00:42:07.942Z,9.80
2023-11-10T00:47:11.210Z,23.70
2023-11-10T00:52:12.744Z,25.10
2023-11-10T00:57:15.404Z,10.70
2023-11-10T01:02:16.927Z,8.70
2023-11-10T01:07:18.631Z,8.00
2023-11-10T01:12:20.823Z,8.30
2023-11-10T01:17:23.406Z,8.50
2023-11-10T01:22:24.969Z,10.60
2023-11-10T01:27:26.827Z,8.60
2023-11-10T01:32:28.429Z,8.90
2023-11-10T01:37:30.682Z,8.90
2023-11-10T01:42:32.259Z,8.70
2023-11-10T01:47:33.934Z,7.10
2023-11-10T01:52:35.693Z,9.00
2023-11-10T01:57:37.367Z,8.00
2023-11-10T02:02:39.212Z,8.10
2023-11-10T02:07:44.029Z,8.50
2023-11-10T02:12:56.814Z,7.40
2023-11-10T02:17:58.441Z,7.40
2023-11-10T02:23:00.697Z,9.80
2023-11-10T02:28:02.226Z,7.50
2023-11-10T02:33:03.905Z,9.40
2023-11-10T02:38:05.771Z,7.80
2023-11-10T02:43:08.992Z,9.50
2023-11-10T02:48:10.837Z,8.80
2023-11-10T02:53:12.432Z,7.50
2023-11-10T02:58:14.278Z,7.20
2023-11-10T03:03:16.383Z,7.60
2023-11-10T03:08:18.338Z,8.80
2023-11-10T03:13:20.854Z,9.10
2023-11-10T03:18:22.667Z,8.10
2023-11-10T03:23:24.346Z,5.90
2023-11-10T03:28:27.402Z,6.30
2023-11-10T03:33:30.252Z,7.80
2023-11-10T03:38:32.372Z,8.50
2023-11-10T03:43:34.753Z,8.40
2023-11-10T03:48:36.362Z,7.30
2023-11-10T03:53:38.193Z,8.20
2023-11-10T03:58:39.812Z,8.40
2023-11-10T04:03:42.959Z,7.60
2023-11-10T04:08:44.621Z,8.00
2023-11-10T04:13:46.840Z,8.70
2023-11-10T04:18:50.709Z,8.50
2023-11-10T04:28:54.514Z,5.80
2023-11-10T04:33:56.154Z,7.30
2023-11-10T04:38:57.800Z,9.20
2023-11-10T04:44:00.986Z,8.80
2023-11-10T04:49:02.539Z,6.30
2023-11-10T04:54:05.190Z,7.00
2023-11-10T04:59:06.765Z,6.50
2023-11-10T05:04:09.030Z,5.10
2023-11-10T05:09:11.067Z,6.30
2023-11-10T05:14:13.220Z,5.50
2023-11-10T05:19:14.980Z,5.60
2023-11-10T05:24:17.338Z,4.70
2023-11-10T05:29:19.030Z,5.60
2023-11-10T05:34:20.842Z,3.80
2023-11-10T05:39:22.567Z,4.80
2023-11-10T05:44:24.388Z,4.80
2023-11-10T05:49:25.995Z,4.80
2023-11-10T05:54:27.623Z,4.70
2023-11-10T05:59:29.712Z,4.00
2023-11-10T06:04:35.352Z,4.10
2023-11-10T06:09:38.893Z,4.80
2023-11-10T06:14:43.018Z,7.30
2023-11-10T06:19:44.745Z,4.70
2023-11-10T06:24:46.393Z,6.00
2023-11-10T06:29:47.959Z,5.40
2023-11-10T06:34:49.890Z,4.50
2023-11-10T06:39:51.585Z,3.50
2023-11-10T06:44:53.142Z,4.20
2023-11-10T06:49:54.789Z,3.80
2023-11-10T06:54:57.940Z,5.10
2023-11-10T06:59:59.467Z,5.60
2023-11-10T07:05:00.999Z,5.00
2023-11-10T07:10:02.713Z,4.50
2023-11-10T07:15:05.362Z,8.10
2023-11-10T07:20:08.217Z,5.80
2023-11-10T07:25:09.786Z,5.70
2023-11-10T07:30:11.739Z,6.40
2023-11-10T07:35:14.614Z,5.70
2023-11-10T07:40:18.714Z,7.00
2023-11-10T07:45:20.595Z,5.10
2023-11-10T07:50:22.955Z,6.70
2023-11-10T07:55:25.324Z,6.50
2023-11-10T08:00:27.034Z,5.80
2023-11-10T08:05:28.612Z,6.90
2023-11-10T08:10:30.494Z,6.40
2023-11-10T08:15:32.095Z,5.90
2023-11-10T08:20:33.768Z,5.50
2023-11-10T08:25:36.910Z,5.90
2023-11-10T08:30:39.234Z,4.90
2023-11-10T08:35:40.843Z,5.80
2023-11-10T08:40:42.500Z,6.50
2023-11-10T08:45:44.089Z,7.60
2023-11-10T08:50:45.670Z,6.80
2023-11-10T08:55:47.453Z,7.00
2023-11-10T09:00:49.062Z,7.00
2023-11-10T09:05:50.779Z,5.90
2023-11-10T09:10:52.457Z,4.60
2023-11-10T09:16:01.704Z,5.70
2023-11-10T09:21:05.596Z,6.50
2023-11-10T09:26:07.171Z,6.70
2023-11-10T09:31:10.704Z,5.20
2023-11-10T09:41:18.158Z,5.70
2023-11-10T09:46:20.667Z,5.60
2023-11-10T09:51:27.833Z,7.20
2023-11-10T09:56:32.381Z,9.70
2023-11-10T10:01:34.291Z,7.40
2023-11-10T10:06:37.485Z,6.70
2023-11-10T10:11:40.786Z,6.20
2023-11-10T10:16:56.346Z,6.20
2023-11-10T10:22:00.360Z,6.70
2023-11-10T10:27:02.272Z,6.50
2023-11-10T10:32:04.668Z,7.00
2023-11-10T10:37:06.543Z,7.40
2023-11-10T10:42:15.507Z,6.60
2023-11-10T10:47:17.516Z,7.40
2023-11-10T10:52:19.727Z,7.30
2023-11-10T10:57:24.965Z,6.50
2023-11-10T11:02:27.716Z,5.60
2023-11-10T11:07:57.922Z,5.30
2023-11-10T11:13:05.536Z,6.50
2023-11-10T11:18:30.140Z,6.30
2023-11-10T11:23:34.358Z,7.10
2023-11-10T11:28:40.101Z,6.80
2023-11-10T11:33:55.065Z,5.80
2023-11-10T11:38:57.721Z,5.60
2023-11-10T11:43:59.262Z,6.70
2023-11-10T11:49:03.172Z,5.80
2023-11-10T11:54:05.015Z,5.60
2023-11-10T11:59:06.691Z,6.00
2023-11-10T12:04:09.006Z,7.30
2023-11-10T12:09:11.090Z,7.50
2023-11-10T12:14:13.365Z,7.20
2023-11-10T12:19:18.956Z,8.50
2023-11-10T12:24:27.968Z,8.00
2023-11-10T12:29:31.197Z,8.00
2023-11-10T12:34:36.506Z,9.90
2023-11-10T12:39:39.412Z,7.50
2023-11-10T12:44:41.155Z,8.50
2023-11-10T12:49:44.672Z,8.10
2023-11-10T12:54:48.806Z,7.00
2023-11-10T12:59:50.449Z,6.60
2023-11-10T13:04:52.008Z,7.50
2023-11-10T13:09:53.601Z,9.00
2023-11-10T13:14:55.369Z,8.80
2023-11-10T13:19:56.981Z,6.50
2023-11-10T13:24:58.618Z,13.30
2023-11-10T13:30:04.566Z,6.80
2023-11-10T13:35:06.964Z,8.20
2023-11-10T13:40:15.665Z,7.70
2023-11-10T13:45:17.513Z,9.30
2023-11-10T13:50:19.960Z,11.20
2023-11-10T13:55:21.503Z,9.70
2023-11-10T14:00:23.335Z,9.60
2023-11-10T14:05:24.945Z,16.70
2023-11-10T14:10:26.561Z,12.50
2023-11-10T14:15:28.439Z,15.70
2023-11-10T14:20:30.067Z,14.90
2023-11-10T14:25:31.961Z,26.20
2023-11-10T14:30:34.672Z,26.90
2023-11-10T14:35:36.425Z,13.60
2023-11-10T14:40:39.626Z,13.70
2023-11-10T14:45:45.929Z,13.00
2023-11-10T14:50:49.247Z,12.30
2023-11-10T14:55:50.919Z,14.80
2023-11-10T15:00:52.629Z,11.40
2023-11-10T15:05:54.188Z,12.20
2023-11-10T15:10:56.449Z,10.70
2023-11-10T15:15:59.724Z,10.70
2023-11-10T15:21:01.350Z,22.30
2023-11-10T15:26:03.006Z,23.20
2023-11-10T15:31:06.891Z,12.80
2023-11-10T15:36:10.955Z,14.90
2023-11-10T15:41:12.539Z,14.30
2023-11-10T15:46:14.257Z,14.40
2023-11-10T15:51:15.913Z,21.10
2023-11-10T15:56:18.049Z,17.10
2023-11-10T16:01:20.127Z,12.40
2023-11-10T16:06:21.842Z,12.90
2023-11-10T16:11:23.430Z,11.90
2023-11-10T16:16:25.549Z,14.30
2023-11-10T16:21:27.386Z,19.10
2023-11-10T16:26:28.996Z,32.20
2023-11-10T16:31:30.622Z,27.00
2023-11-10T16:36:32.224Z,24.50
2023-11-10T16:41:36.367Z,27.50
2023-11-10T16:46:38.024Z,47.10
2023-11-10T16:51:41.317Z,56.40
2023-11-10T16:56:42.968Z,40.60
2023-11-10T17:01:44.644Z,49.70
2023-11-10T17:06:47.711Z,28.70
2023-11-10T17:11:49.271Z,95.50
2023-11-10T17:16:51.381Z,28.70
2023-11-10T17:21:54.213Z,27.10
2023-11-10T17:26:56.787Z,25.20
2023-11-10T17:32:02.601Z,23.80
2023-11-10T17:37:05.398Z,29.10
2023-11-10T17:42:07.436Z,29.50
2023-11-10T17:47:09.124Z,24.20
2023-11-10T17:52:10.775Z,26.00
2023-11-10T17:57:12.446Z,19.90
2023-11-10T18:02:14.493Z,24.20
2023-11-10T18:07:17.427Z,32.90
2023-11-10T18:12:19.409Z,20.50
2023-11-10T18:17:21.699Z,21.50
2023-11-10T18:22:23.369Z,24.60
2023-11-10T18:27:25.644Z,29.50
2023-11-10T18:32:27.362Z,31.60
2023-11-10T18:37:29.413Z,26.00
2023-11-10T18:42:30.974Z,20.10
2023-11-10T18:47:32.575Z,20.90
2023-11-10T18:52:34.496Z,25.30
2023-11-10T18:57:36.211Z,25.50
2023-11-10T19:02:38.089Z,20.40
2023-11-10T19:07:41.678Z,25.40
2023-11-10T19:12:45.307Z,22.50
2023-11-10T19:22:49.034Z,27.90
2023-11-10T19:27:51.217Z,20.00
2023-11-10T19:32:52.875Z,23.70
2023-11-10T19:37:54.933Z,25.40
2023-11-10T19:42:56.850Z,24.40
2023-11-10T19:47:58.460Z,19.00
2023-11-10T19:53:02.219Z,32.80
2023-11-10T19:58:03.889Z,24.90
2023-11-10T20:03:06.284Z,26.10
2023-11-10T20:08:09.244Z,20.20
2023-11-10T20:13:10.888Z,18.90
2023-11-10T20:18:12.674Z,13.60
2023-11-10T20:23:14.644Z,18.90
2023-11-10T20:28:16.197Z,15.90
2023-11-10T20:33:17.855Z,13.10
2023-11-10T20:38:19.768Z,15.80
2023-11-10T20:43:21.283Z,15.30
2023-11-10T20:48:22.962Z,14.80
2023-11-10T20:53:24.705Z,13.40
2023-11-10T20:58:26.244Z,12.00
2023-11-10T21:03:27.951Z,13.10
2023-11-10T21:08:29.713Z,15.20
2023-11-10T21:13:31.298Z,14.90
2023-11-10T21:18:35.031Z,14.90
2023-11-10T21:28:40.167Z,17.50
2023-11-10T21:33:41.857Z,13.80
2023-11-10T21:38:43.627Z,15.30
2023-11-10T21:43:45.174Z,13.30
2023-11-10T21:48:46.739Z,14.40
2023-11-10T21:53:48.267Z,16.10
2023-11-10T21:58:50.077Z,14.70
2023-11-10T22:03:51.719Z,17.20
2023-11-10T22:08:53.322Z,17.40
2023-11-10T22:13:55.398Z,16.00
2023-11-10T22:18:57.770Z,16.80
2023-11-10T22:23:59.362Z,11.70
2023-11-10T22:29:00.888Z,15.00
2023-11-10T22:34:02.464Z,16.70
2023-11-10T22:39:04.146Z,13.70
2023-11-10T22:44:06.045Z,17.10
2023-11-10T22:49:07.804Z,15.80
2023-11-10T22:54:09.511Z,13.70
2023-11-10T22:59:11.065Z,12.10
2023-11-10T23:04:12.716Z,12.70
2023-11-10T23:09:15.428Z,13.70
2023-11-10T23:14:17.023Z,10.10
2023-11-10T23:19:19.371Z,12.20
2023-11-10T23:24:21.036Z,13.10
2023-11-10T23:29:23.652Z,15.00
2023-11-10T23:34:25.239Z,12.50
2023-11-10T23:39:27.270Z,12.70
2023-11-10T23:44:28.873Z,13.00
2023-11-10T23:49:30.771Z,11.00
2023-11-10T23:54:33.911Z,11.10
2023-11-10T23:59:36.735Z,11.10
